Time;durP1;ratioP1;P1;durP2;ratioP2;P2;SDS_P1;SDS_P2;PMS_P1;PMS_P2;Temp;Humidity;BMP_temperature;BMP_pressure;BME280_temperature;BME280_humidity;BME280_pressure;Samples;Min_cycle;Max_cycle;Signal;HPM_P1;HPM_P2
2023/06/30 00:00:25;;;;;;;11.73;7.70;;;;;;;;;;5025756;28;20638;-78
2023/06/30 00:02:50;;;;;;;13.67;8.10;;;;;;;;;;5019292;28;20730;-77
2023/06/30 00:05:16;;;;;;;13.47;8.57;;;;;;;;;;5021363;28;20210;-77
2023/06/30 00:07:42;;;;;;;12.57;8.73;;;;;;;;;;5032206;28;20317;-76
2023/06/30 00:10:08;;;;;;;15.60;9.53;;;;;;;;;;5022002;28;20307;-77
2023/06/30 00:12:33;;;;;;;16.37;9.77;;;;;;;;;;5021998;28;20267;-77
2023/06/30 00:14:59;;;;;;;16.27;10.13;;;;;;;;;;5019605;28;20225;-77
2023/06/30 00:17:24;;;;;;;17.07;10.47;;;;;;;;;;5015832;28;21044;-76
2023/06/30 00:19:50;;;;;;;16.57;9.97;;;;;;;;;;5025870;28;20731;-77
2023/06/30 00:22:16;;;;;;;18.07;9.97;;;;;;;;;;5024172;28;20230;-77
2023/06/30 00:24:42;;;;;;;17.27;10.13;;;;;;;;;;5018950;28;20236;-76
2023/06/30 00:27:07;;;;;;;15.73;10.33;;;;;;;;;;5016785;28;20229;-77
2023/06/30 00:29:32;;;;;;;18.73;10.00;;;;;;;;;;5018244;28;20285;-75
2023/06/30 00:31:57;;;;;;;14.90;9.60;;;;;;;;;;5008806;28;20223;-75
2023/06/30 00:34:23;;;;;;;16.17;9.87;;;;;;;;;;4997238;28;20760;-75
2023/06/30 00:36:48;;;;;;;17.70;9.40;;;;;;;;;;5002007;28;20331;-75
2023/06/30 00:39:13;;;;;;;14.57;9.20;;;;;;;;;;5002751;28;20234;-75
2023/06/30 00:41:39;;;;;;;13.43;9.50;;;;;;;;;;5000331;28;20997;-75
2023/06/30 00:44:04;;;;;;;15.97;9.17;;;;;;;;;;5015864;28;20559;-75
2023/06/30 00:46:29;;;;;;;16.63;9.80;;;;;;;;;;5000177;28;20266;-76
2023/06/30 00:48:54;;;;;;;15.00;9.03;;;;;;;;;;5022567;28;20589;-75
2023/06/30 00:51:20;;;;;;;14.10;9.43;;;;;;;;;;5017431;28;20365;-76
2023/06/30 00:53:45;;;;;;;14.47;8.93;;;;;;;;;;5013843;28;20227;-74
2023/06/30 00:56:10;;;;;;;14.80;9.60;;;;;;;;;;5013934;28;20226;-75
2023/06/30 00:58:36;;;;;;;14.83;8.80;;;;;;;;;;4998484;28;20231;-75
2023/06/30 01:01:04;;;;;;;12.53;9.03;;;;;;;;;;4996288;28;20231;-74
2023/06/30 01:03:40;;;;;;;13.33;9.00;;;;;;;;;;5003576;28;20624;-74
2023/06/30 01:06:24;;;;;;;12.77;8.60;;;;;;;;;;5014722;28;20320;-73
2023/06/30 01:08:53;;;;;;;12.17;8.63;;;;;;;;;;5015008;28;20234;-74
2023/06/30 01:11:18;;;;;;;13.73;8.47;;;;;;;;;;5022787;28;20715;-74
2023/06/30 01:13:44;;;;;;;13.13;8.60;;;;;;;;;;5023827;28;20230;-74
2023/06/30 01:16:12;;;;;;;13.33;8.70;;;;;;;;;;5023842;28;20230;-74
2023/06/30 01:18:37;;;;;;;13.03;8.87;;;;;;;;;;5001317;28;20226;-75
2023/06/30 01:21:05;;;;;;;14.10;8.83;;;;;;;;;;5024151;28;20217;-75
2023/06/30 01:23:34;;;;;;;13.60;8.30;;;;;;;;;;5019556;28;20206;-76
2023/06/30 01:26:00;;;;;;;10.80;8.43;;;;;;;;;;5024318;28;20249;-75
2023/06/30 01:28:27;;;;;;;11.10;8.20;;;;;;;;;;5021162;28;20626;-74
2023/06/30 01:30:54;;;;;;;11.03;7.87;;;;;;;;;;5022225;28;20230;-74
2023/06/30 01:33:19;;;;;;;10.73;7.87;;;;;;;;;;5024485;28;20349;-74
2023/06/30 01:35:44;;;;;;;11.27;7.40;;;;;;;;;;5012291;28;20313;-75
2023/06/30 01:38:09;;;;;;;14.20;7.90;;;;;;;;;;5026472;28;20225;-75
2023/06/30 01:40:35;;;;;;;11.17;7.50;;;;;;;;;;5036693;28;20223;-75
2023/06/30 01:43:00;;;;;;;10.33;7.60;;;;;;;;;;5018179;28;20247;-75
2023/06/30 01:45:25;;;;;;;11.00;7.00;;;;;;;;;;5005125;28;20222;-75
2023/06/30 01:47:51;;;;;;;11.50;7.40;;;;;;;;;;5023520;28;20229;-75
2023/06/30 01:50:16;;;;;;;10.40;7.60;;;;;;;;;;5012256;28;20233;-74
2023/06/30 01:52:41;;;;;;;10.40;7.60;;;;;;;;;;5023126;28;20230;-75
2023/06/30 01:55:07;;;;;;;11.77;7.67;;;;;;;;;;5023976;28;20222;-75
2023/06/30 01:57:32;;;;;;;11.30;8.00;;;;;;;;;;5023606;28;20627;-75
2023/06/30 01:59:57;;;;;;;9.93;7.47;;;;;;;;;;4998540;28;20229;-74
2023/06/30 02:02:23;;;;;;;11.13;7.70;;;;;;;;;;5018670;28;20234;-74
2023/06/30 02:04:48;;;;;;;10.87;7.63;;;;;;;;;;5031789;28;20242;-74
2023/06/30 02:07:13;;;;;;;13.53;7.97;;;;;;;;;;4996524;28;20309;-75
2023/06/30 02:09:38;;;;;;;10.97;8.20;;;;;;;;;;5010493;28;20222;-75
2023/06/30 02:12:04;;;;;;;14.07;8.23;;;;;;;;;;5020884;28;20693;-74
2023/06/30 02:14:29;;;;;;;11.57;8.17;;;;;;;;;;5026649;28;20321;-73
2023/06/30 02:16:54;;;;;;;12.93;8.40;;;;;;;;;;5034908;28;20292;-74
2023/06/30 02:19:23;;;;;;;12.23;8.40;;;;;;;;;;5020832;28;20746;-74
2023/06/30 02:21:48;;;;;;;13.80;8.43;;;;;;;;;;5023436;28;20352;-74
2023/06/30 02:24:14;;;;;;;11.53;8.27;;;;;;;;;;5031605;28;20648;-75
2023/06/30 02:26:39;;;;;;;11.00;8.43;;;;;;;;;;5016071;28;20288;-75
2023/06/30 02:29:04;;;;;;;11.40;7.93;;;;;;;;;;5021266;28;20217;-77
2023/06/30 02:31:30;;;;;;;9.27;8.07;;;;;;;;;;5033135;28;20246;-74
2023/06/30 02:33:55;;;;;;;11.57;8.90;;;;;;;;;;5017444;28;20230;-75
2023/06/30 02:36:20;;;;;;;13.67;8.87;;;;;;;;;;5020647;28;20270;-75
2023/06/30 02:38:45;;;;;;;14.20;8.63;;;;;;;;;;5017357;28;20781;-75
2023/06/30 02:41:11;;;;;;;12.23;8.13;;;;;;;;;;5015405;28;20237;-74
2023/06/30 02:43:36;;;;;;;11.27;7.53;;;;;;;;;;4996735;28;20231;-74
2023/06/30 02:46:01;;;;;;;13.03;7.60;;;;;;;;;;5022353;28;20284;-74
2023/06/30 02:48:26;;;;;;;12.00;7.07;;;;;;;;;;5004617;28;20233;-74
2023/06/30 02:50:52;;;;;;;11.70;7.43;;;;;;;;;;5013708;28;20238;-74
2023/06/30 02:53:17;;;;;;;11.17;7.40;;;;;;;;;;5020399;28;20368;-74
2023/06/30 02:55:42;;;;;;;9.47;6.93;;;;;;;;;;5022629;28;20218;-74
2023/06/30 02:58:07;;;;;;;13.00;7.07;;;;;;;;;;5023674;28;20225;-74
2023/06/30 03:00:34;;;;;;;11.53;7.40;;;;;;;;;;5021064;28;20288;-74
2023/06/30 03:02:59;;;;;;;10.53;7.40;;;;;;;;;;5020880;28;20229;-74
2023/06/30 03:05:24;;;;;;;12.03;7.07;;;;;;;;;;5022278;28;20230;-74
2023/06/30 03:07:50;;;;;;;10.77;7.27;;;;;;;;;;5012100;28;20232;-73
2023/06/30 03:10:15;;;;;;;10.47;6.93;;;;;;;;;;5006669;28;20683;-73
2023/06/30 03:12:40;;;;;;;10.80;7.03;;;;;;;;;;5027830;28;20321;-74
2023/06/30 03:15:05;;;;;;;10.47;7.40;;;;;;;;;;5018919;28;20244;-74
2023/06/30 03:17:32;;;;;;;10.87;7.43;;;;;;;;;;5021122;28;20241;-75
2023/06/30 03:19:57;;;;;;;11.13;7.40;;;;;;;;;;5012880;28;20218;-75
2023/06/30 03:22:22;;;;;;;11.83;7.33;;;;;;;;;;5018902;28;20642;-75
2023/06/30 03:24:47;;;;;;;11.63;7.70;;;;;;;;;;5023918;28;20825;-75
2023/06/30 03:27:13;;;;;;;12.70;7.67;;;;;;;;;;5020759;28;20246;-75
2023/06/30 03:29:38;;;;;;;12.87;7.87;;;;;;;;;;5012554;28;20225;-75
2023/06/30 03:32:03;;;;;;;18.20;9.27;;;;;;;;;;5019070;28;20222;-74
2023/06/30 03:34:29;;;;;;;13.33;7.90;;;;;;;;;;5021932;28;20230;-75
2023/06/30 03:36:54;;;;;;;14.20;8.30;;;;;;;;;;5015464;28;20219;-76
2023/06/30 03:39:19;;;;;;;12.73;8.23;;;;;;;;;;5022702;28;20225;-74
2023/06/30 03:41:44;;;;;;;13.00;8.57;;;;;;;;;;5014686;28;20346;-75
2023/06/30 03:44:11;;;;;;;28.33;10.40;;;;;;;;;;5020156;28;20237;-75
2023/06/30 03:46:37;;;;;;;16.17;10.13;;;;;;;;;;5016473;28;20235;-75
2023/06/30 03:49:02;;;;;;;18.83;9.87;;;;;;;;;;5013127;28;20231;-76
2023/06/30 03:51:27;;;;;;;17.13;9.43;;;;;;;;;;4990745;28;20243;-75
2023/06/30 03:53:53;;;;;;;15.80;9.20;;;;;;;;;;5013596;28;20227;-75
2023/06/30 03:56:18;;;;;;;12.03;8.73;;;;;;;;;;4995279;28;20609;-75
2023/06/30 03:58:43;;;;;;;14.83;8.27;;;;;;;;;;4995658;28;20229;-75
2023/06/30 04:01:09;;;;;;;12.47;8.53;;;;;;;;;;4995762;28;20218;-75
2023/06/30 04:03:34;;;;;;;12.93;8.87;;;;;;;;;;5011695;28;20223;-76
2023/06/30 04:05:59;;;;;;;11.17;8.30;;;;;;;;;;5011131;28;20280;-75
2023/06/30 04:08:25;;;;;;;11.87;8.20;;;;;;;;;;5015893;28;20233;-75
2023/06/30 04:10:50;;;;;;;14.50;8.70;;;;;;;;;;5012572;28;20234;-74
2023/06/30 04:13:15;;;;;;;13.77;8.53;;;;;;;;;;5012156;28;20219;-75
2023/06/30 04:15:41;;;;;;;11.97;8.63;;;;;;;;;;4998427;28;20219;-76
2023/06/30 04:18:06;;;;;;;14.63;8.57;;;;;;;;;;4997035;28;20490;-75
2023/06/30 04:20:31;;;;;;;14.40;8.47;;;;;;;;;;5014348;28;20328;-73
2023/06/30 04:22:56;;;;;;;17.67;9.03;;;;;;;;;;5014508;28;20231;-76
2023/06/30 04:25:22;;;;;;;15.40;9.43;;;;;;;;;;4996976;28;20222;-75
2023/06/30 04:27:47;;;;;;;14.57;9.00;;;;;;;;;;4996942;28;20321;-75
2023/06/30 04:30:13;;;;;;;13.27;9.80;;;;;;;;;;4998428;28;20752;-75
2023/06/30 04:32:38;;;;;;;14.10;9.80;;;;;;;;;;5014463;28;20324;-75
2023/06/30 04:35:04;;;;;;;17.37;9.77;;;;;;;;;;5015895;28;20297;-76
2023/06/30 04:37:29;;;;;;;14.37;9.60;;;;;;;;;;4997877;28;20617;-75
2023/06/30 04:39:55;;;;;;;15.37;9.10;;;;;;;;;;5013810;28;20230;-75
2023/06/30 04:42:20;;;;;;;14.97;9.20;;;;;;;;;;4997604;28;20230;-77
2023/06/30 04:44:46;;;;;;;16.77;9.43;;;;;;;;;;5013435;28;20223;-74
2023/06/30 04:47:11;;;;;;;20.70;9.80;;;;;;;;;;4999609;28;20247;-75
2023/06/30 04:49:36;;;;;;;15.80;9.47;;;;;;;;;;4995547;28;20243;-74
2023/06/30 04:52:02;;;;;;;17.97;10.33;;;;;;;;;;4995521;28;20944;-75
2023/06/30 04:54:27;;;;;;;17.20;11.03;;;;;;;;;;5001386;28;20227;-75
2023/06/30 04:56:52;;;;;;;17.97;11.33;;;;;;;;;;5000007;28;20230;-75
2023/06/30 04:59:17;;;;;;;19.67;12.37;;;;;;;;;;4996921;28;20235;-75
2023/06/30 05:01:43;;;;;;;19.60;13.00;;;;;;;;;;5005484;28;20593;-75
2023/06/30 05:04:08;;;;;;;18.80;12.73;;;;;;;;;;5015050;28;20226;-75
2023/06/30 05:06:33;;;;;;;22.70;14.60;;;;;;;;;;4997139;28;20232;-75
2023/06/30 05:08:58;;;;;;;26.27;16.60;;;;;;;;;;4981006;28;20289;-75
2023/06/30 05:11:24;;;;;;;21.07;14.10;;;;;;;;;;5012893;28;20698;-74
2023/06/30 05:13:49;;;;;;;20.37;13.20;;;;;;;;;;4996944;28;20223;-75
2023/06/30 05:16:15;;;;;;;19.10;13.50;;;;;;;;;;4995796;28;20314;-75
2023/06/30 05:18:40;;;;;;;19.93;13.40;;;;;;;;;;4997256;28;20211;-74
2023/06/30 05:21:06;;;;;;;18.97;13.43;;;;;;;;;;5015453;28;20282;-75
2023/06/30 05:23:31;;;;;;;20.83;13.97;;;;;;;;;;4981692;28;20565;-74
2023/06/30 05:25:58;;;;;;;20.90;13.53;;;;;;;;;;4992478;28;20230;-75
2023/06/30 05:28:23;;;;;;;21.03;13.20;;;;;;;;;;5000748;28;20231;-75
2023/06/30 05:30:49;;;;;;;20.10;13.00;;;;;;;;;;4996927;28;20231;-75
2023/06/30 05:33:14;;;;;;;18.43;12.07;;;;;;;;;;5005944;28;20219;-75
2023/06/30 05:35:39;;;;;;;22.70;13.00;;;;;;;;;;5019915;28;21071;-75
2023/06/30 05:38:04;;;;;;;21.43;11.70;;;;;;;;;;4994754;28;20258;-75
2023/06/30 05:40:30;;;;;;;18.73;12.10;;;;;;;;;;5017499;28;20230;-75
2023/06/30 05:42:55;;;;;;;18.87;11.70;;;;;;;;;;5016717;28;20230;-75
2023/06/30 05:45:20;;;;;;;18.30;11.93;;;;;;;;;;5018711;28;20306;-75
2023/06/30 05:47:46;;;;;;;17.77;11.13;;;;;;;;;;5013879;28;20231;-75
2023/06/30 05:50:11;;;;;;;18.03;11.30;;;;;;;;;;5017860;28;20280;-75
2023/06/30 05:52:36;;;;;;;16.77;10.93;;;;;;;;;;5014367;28;20253;-78
2023/06/30 05:55:02;;;;;;;16.43;11.10;;;;;;;;;;4999222;28;20295;-78
2023/06/30 05:57:27;;;;;;;16.47;10.60;;;;;;;;;;5013877;28;20235;-78
2023/06/30 05:59:52;;;;;;;13.63;10.17;;;;;;;;;;5010469;28;20231;-78
2023/06/30 06:02:18;;;;;;;15.77;9.50;;;;;;;;;;4980060;28;20698;-78
2023/06/30 06:04:43;;;;;;;13.80;9.53;;;;;;;;;;4995576;28;20225;-75
2023/06/30 06:07:08;;;;;;;18.43;9.43;;;;;;;;;;4999327;28;20238;-75
2023/06/30 06:09:33;;;;;;;16.53;9.67;;;;;;;;;;4995302;28;20230;-75
2023/06/30 06:12:00;;;;;;;16.40;10.20;;;;;;;;;;4995775;28;20230;-75
2023/06/30 06:14:25;;;;;;;13.40;9.53;;;;;;;;;;4986978;28;20682;-75
2023/06/30 06:16:51;;;;;;;13.43;9.20;;;;;;;;;;5015366;28;20318;-75
2023/06/30 06:19:17;;;;;;;14.67;9.50;;;;;;;;;;5021230;28;20242;-74
2023/06/30 06:21:42;;;;;;;14.93;9.30;;;;;;;;;;5013509;28;20300;-74
2023/06/30 06:24:07;;;;;;;16.57;10.33;;;;;;;;;;5018518;28;20264;-75
2023/06/30 06:26:33;;;;;;;14.60;9.53;;;;;;;;;;5017793;28;20230;-75
2023/06/30 06:28:58;;;;;;;15.87;9.40;;;;;;;;;;5000172;28;20230;-75
2023/06/30 06:31:24;;;;;;;17.50;10.10;;;;;;;;;;5019958;28;20238;-74
2023/06/30 06:33:49;;;;;;;15.10;9.63;;;;;;;;;;4995384;28;20211;-75
2023/06/30 06:36:15;;;;;;;16.83;9.60;;;;;;;;;;5020090;28;20229;-74
2023/06/30 06:38:40;;;;;;;16.67;9.70;;;;;;;;;;5019538;28;20233;-75
2023/06/30 06:41:05;;;;;;;18.33;9.60;;;;;;;;;;4996811;28;20211;-75
2023/06/30 06:43:30;;;;;;;16.13;10.13;;;;;;;;;;5013950;28;20229;-76
2023/06/30 06:45:56;;;;;;;12.80;9.50;;;;;;;;;;5020525;28;20231;-76
2023/06/30 06:48:25;;;;;;;13.43;9.63;;;;;;;;;;4994481;28;20227;-75
2023/06/30 06:50:53;;;;;;;14.13;9.17;;;;;;;;;;5020815;28;20322;-76
2023/06/30 06:53:19;;;;;;;14.90;9.60;;;;;;;;;;5020719;28;20992;-75
2023/06/30 06:55:48;;;;;;;17.30;9.70;;;;;;;;;;5016094;28;20313;-75
2023/06/30 06:58:13;;;;;;;15.37;9.77;;;;;;;;;;5034566;28;20214;-75
2023/06/30 07:00:38;;;;;;;14.27;9.03;;;;;;;;;;5022182;28;20237;-75
2023/06/30 07:03:03;;;;;;;15.43;9.40;;;;;;;;;;5019681;28;20947;-75
2023/06/30 07:05:31;;;;;;;15.47;9.23;;;;;;;;;;5024855;28;20226;-76
2023/06/30 07:07:56;;;;;;;15.13;10.20;;;;;;;;;;5019702;28;20287;-75
2023/06/30 07:10:22;;;;;;;14.40;9.53;;;;;;;;;;5010834;28;20337;-75
2023/06/30 07:12:47;;;;;;;16.63;9.53;;;;;;;;;;5011191;28;20219;-75
2023/06/30 07:15:12;;;;;;;15.47;10.17;;;;;;;;;;5000219;28;20725;-75
2023/06/30 07:17:37;;;;;;;17.67;9.67;;;;;;;;;;5005393;28;20230;-76
2023/06/30 07:20:03;;;;;;;16.50;9.90;;;;;;;;;;5012438;28;20282;-75
2023/06/30 07:22:28;;;;;;;18.33;9.77;;;;;;;;;;4996489;28;20312;-75
2023/06/30 07:24:53;;;;;;;16.60;10.10;;;;;;;;;;4997528;28;20719;-74
2023/06/30 07:27:19;;;;;;;14.70;9.83;;;;;;;;;;4996879;28;20223;-74
2023/06/30 07:29:44;;;;;;;14.97;8.97;;;;;;;;;;5011959;28;20230;-75
2023/06/30 07:32:10;;;;;;;18.33;10.10;;;;;;;;;;5004011;28;20774;-74
2023/06/30 07:34:35;;;;;;;14.10;9.17;;;;;;;;;;5010633;28;20227;-73
2023/06/30 07:37:00;;;;;;;13.10;8.90;;;;;;;;;;4994119;28;20233;-75
2023/06/30 07:39:26;;;;;;;18.30;9.73;;;;;;;;;;5008927;28;20227;-73
2023/06/30 07:41:51;;;;;;;11.73;8.77;;;;;;;;;;5013323;28;20223;-74
2023/06/30 07:44:16;;;;;;;16.13;8.73;;;;;;;;;;5013404;28;20310;-74
2023/06/30 07:46:42;;;;;;;10.90;8.17;;;;;;;;;;4994676;28;20236;-75
2023/06/30 07:49:07;;;;;;;11.90;8.30;;;;;;;;;;4996760;28;20245;-74
2023/06/30 07:51:32;;;;;;;16.80;8.83;;;;;;;;;;4999269;28;20626;-75
2023/06/30 07:53:58;;;;;;;14.30;8.93;;;;;;;;;;4980017;28;20322;-76
2023/06/30 07:56:23;;;;;;;13.00;9.00;;;;;;;;;;5017716;28;20623;-77
2023/06/30 07:58:48;;;;;;;11.73;8.07;;;;;;;;;;4984391;28;20254;-77
2023/06/30 08:01:13;;;;;;;13.27;8.17;;;;;;;;;;5016931;28;20297;-76
2023/06/30 08:03:39;;;;;;;17.57;8.33;;;;;;;;;;5017543;28;20251;-76
2023/06/30 08:06:04;;;;;;;17.27;8.60;;;;;;;;;;5021371;28;20710;-76
2023/06/30 08:08:30;;;;;;;14.53;7.43;;;;;;;;;;4996385;28;20230;-77
2023/06/30 08:10:55;;;;;;;10.47;6.27;;;;;;;;;;5014832;28;21079;-76
2023/06/30 08:13:22;;;;;;;6.40;5.07;;;;;;;;;;5023231;28;20226;-76
2023/06/30 08:15:47;;;;;;;8.33;5.83;;;;;;;;;;5017804;28;20968;-74
2023/06/30 08:18:12;;;;;;;8.13;4.93;;;;;;;;;;4997840;28;20716;-77
2023/06/30 08:20:38;;;;;;;9.27;5.13;;;;;;;;;;4981440;28;20341;-76
2023/06/30 08:23:03;;;;;;;7.43;4.60;;;;;;;;;;5010257;28;20226;-76
2023/06/30 08:25:28;;;;;;;5.90;4.00;;;;;;;;;;5023871;28;20234;-75
2023/06/30 08:27:53;;;;;;;4.50;3.23;;;;;;;;;;5018701;28;20886;-75
2023/06/30 08:30:19;;;;;;;10.47;4.60;;;;;;;;;;5015699;28;20242;-75
2023/06/30 08:32:44;;;;;;;8.23;4.40;;;;;;;;;;5017014;28;20818;-74
2023/06/30 08:35:09;;;;;;;5.30;3.70;;;;;;;;;;5016813;28;20217;-74
2023/06/30 08:37:35;;;;;;;6.90;3.33;;;;;;;;;;5025967;28;20313;-74
2023/06/30 08:40:00;;;;;;;13.23;5.53;;;;;;;;;;5020732;28;20335;-74
2023/06/30 08:42:27;;;;;;;8.33;4.00;;;;;;;;;;4998045;28;20220;-75
2023/06/30 08:44:53;;;;;;;8.87;4.60;;;;;;;;;;5018747;28;20326;-75
2023/06/30 08:47:18;;;;;;;8.93;4.60;;;;;;;;;;5026130;28;20222;-75
2023/06/30 08:49:44;;;;;;;7.27;4.40;;;;;;;;;;5016588;28;20630;-74
2023/06/30 08:52:09;;;;;;;6.77;4.47;;;;;;;;;;5020669;28;20226;-74
2023/06/30 08:54:34;;;;;;;6.88;4.45;;;;;;;;;;5021212;28;20222;-76
2023/06/30 08:57:01;;;;;;;8.98;4.82;;;;;;;;;;5015863;28;20226;-74
2023/06/30 08:59:26;;;;;;;9.60;4.87;;;;;;;;;;5022239;28;20222;-74
2023/06/30 09:01:53;;;;;;;6.50;4.60;;;;;;;;;;5023581;28;20621;-75
2023/06/30 09:04:19;;;;;;;8.75;4.40;;;;;;;;;;5024930;28;20226;-74
2023/06/30 09:06:50;;;;;;;8.88;4.63;;;;;;;;;;5024807;28;20636;-74
2023/06/30 09:09:20;;;;;;;5.72;4.28;;;;;;;;;;5022851;28;20646;-75
2023/06/30 09:11:45;;;;;;;8.93;4.53;;;;;;;;;;5023619;28;20270;-74
2023/06/30 09:14:11;;;;;;;7.25;4.45;;;;;;;;;;5020517;28;20270;-75
2023/06/30 09:16:36;;;;;;;10.52;4.28;;;;;;;;;;5024719;28;20231;-74
2023/06/30 09:19:02;;;;;;;9.10;4.55;;;;;;;;;;5017251;28;20220;-75
2023/06/30 09:21:27;;;;;;;7.80;4.25;;;;;;;;;;5015554;28;20241;-74
2023/06/30 09:23:53;;;;;;;6.90;4.28;;;;;;;;;;5024720;28;20226;-75
2023/06/30 09:26:18;;;;;;;7.45;4.15;;;;;;;;;;5010932;28;21169;-75
2023/06/30 09:28:43;;;;;;;6.05;4.13;;;;;;;;;;5006127;28;20227;-74
2023/06/30 09:31:09;;;;;;;7.45;4.10;;;;;;;;;;5022608;28;20234;-75
2023/06/30 09:33:34;;;;;;;8.95;4.00;;;;;;;;;;5021061;28;20233;-74
2023/06/30 09:36:00;;;;;;;8.00;4.25;;;;;;;;;;5021452;28;20230;-75
2023/06/30 09:38:28;;;;;;;7.38;4.20;;;;;;;;;;5010673;28;20237;-74
2023/06/30 09:40:53;;;;;;;5.65;4.20;;;;;;;;;;5012393;28;21142;-74
2023/06/30 09:43:21;;;;;;;5.75;4.10;;;;;;;;;;5017941;28;20238;-74
2023/06/30 09:45:47;;;;;;;6.10;4.22;;;;;;;;;;5016923;28;20679;-73
2023/06/30 09:48:13;;;;;;;7.32;5.13;;;;;;;;;;5024271;28;20218;-74
2023/06/30 09:50:38;;;;;;;7.10;4.80;;;;;;;;;;4994038;28;20354;-75
2023/06/30 09:53:03;;;;;;;7.78;4.78;;;;;;;;;;5021378;28;20243;-75
2023/06/30 09:55:28;;;;;;;8.18;5.07;;;;;;;;;;5015144;28;20238;-76
2023/06/30 09:57:56;;;;;;;9.48;5.05;;;;;;;;;;5020845;28;20277;-75
2023/06/30 10:00:23;;;;;;;6.70;5.03;;;;;;;;;;5023926;28;20214;-74
2023/06/30 10:03:01;;;;;;;7.28;5.13;;;;;;;;;;5023195;28;20230;-75
2023/06/30 10:05:26;;;;;;;7.25;4.90;;;;;;;;;;5023364;28;20233;-75
2023/06/30 10:07:52;;;;;;;9.02;5.20;;;;;;;;;;5016550;28;20219;-76
2023/06/30 10:10:17;;;;;;;9.80;5.50;;;;;;;;;;5022600;28;20217;-75
2023/06/30 10:12:43;;;;;;;6.78;5.45;;;;;;;;;;4993454;28;20222;-75
2023/06/30 10:15:09;;;;;;;6.70;5.15;;;;;;;;;;5007802;28;20255;-75
2023/06/30 10:17:34;;;;;;;9.07;5.28;;;;;;;;;;5020530;28;20226;-75
2023/06/30 10:20:00;;;;;;;7.72;4.90;;;;;;;;;;5020497;28;20651;-75
2023/06/30 10:22:25;;;;;;;10.98;5.00;;;;;;;;;;5022643;28;20229;-74
2023/06/30 10:24:50;;;;;;;7.97;5.40;;;;;;;;;;5014787;28;20232;-76
2023/06/30 10:27:18;;;;;;;6.57;4.80;;;;;;;;;;5017215;28;20215;-75
2023/06/30 10:29:43;;;;;;;7.07;5.10;;;;;;;;;;5019889;28;20226;-74
2023/06/30 10:32:08;;;;;;;6.72;5.20;;;;;;;;;;5009395;28;20730;-74
2023/06/30 10:34:33;;;;;;;8.95;5.15;;;;;;;;;;5021505;28;20301;-74
2023/06/30 10:36:59;;;;;;;7.82;5.00;;;;;;;;;;5001567;28;20902;-74
2023/06/30 10:39:24;;;;;;;8.07;5.00;;;;;;;;;;5023364;28;20226;-75
2023/06/30 10:41:50;;;;;;;8.32;5.10;;;;;;;;;;5021531;28;20356;-73
2023/06/30 10:44:15;;;;;;;12.07;4.85;;;;;;;;;;5022852;28;20222;-73
2023/06/30 10:46:41;;;;;;;7.72;5.60;;;;;;;;;;5029994;28;20326;-75
2023/06/30 10:49:06;;;;;;;11.13;5.57;;;;;;;;;;5015471;28;20233;-75
2023/06/30 10:51:36;;;;;;;9.38;5.78;;;;;;;;;;5005722;28;20238;-74
2023/06/30 10:54:01;;;;;;;11.38;5.75;;;;;;;;;;5013652;28;20223;-73
2023/06/30 10:56:27;;;;;;;13.75;5.70;;;;;;;;;;5021163;28;20238;-74
2023/06/30 10:58:55;;;;;;;7.32;5.38;;;;;;;;;;5012732;28;20223;-74
2023/06/30 11:01:20;;;;;;;9.20;5.60;;;;;;;;;;5021088;28;20215;-74
2023/06/30 11:03:57;;;;;;;11.52;5.70;;;;;;;;;;5022338;28;20627;-74
2023/06/30 11:06:23;;;;;;;7.47;5.18;;;;;;;;;;5017194;28;20906;-75
2023/06/30 11:09:00;;;;;;;14.60;6.80;;;;;;;;;;4997869;28;20276;-74
2023/06/30 11:11:27;;;;;;;9.68;6.20;;;;;;;;;;5021753;28;20843;-75
2023/06/30 11:14:12;;;;;;;11.40;6.25;;;;;;;;;;5018243;28;20616;-75
2023/06/30 11:16:56;;;;;;;11.18;6.30;;;;;;;;;;5011000;28;20336;-74
2023/06/30 11:19:24;;;;;;;10.18;6.00;;;;;;;;;;5019603;28;20241;-74
2023/06/30 11:22:08;;;;;;;9.50;6.40;;;;;;;;;;5022754;28;20238;-74
2023/06/30 11:24:33;;;;;;;9.73;6.40;;;;;;;;;;5044278;28;20810;-74
2023/06/30 11:26:59;;;;;;;10.73;6.10;;;;;;;;;;5025473;28;20293;-73
2023/06/30 11:29:25;;;;;;;10.05;6.22;;;;;;;;;;5021261;28;20329;-75
2023/06/30 11:31:50;;;;;;;9.13;6.05;;;;;;;;;;5012960;28;20262;-75
2023/06/30 11:34:16;;;;;;;9.30;6.30;;;;;;;;;;5025653;28;20658;-74
2023/06/30 11:36:41;;;;;;;9.95;6.20;;;;;;;;;;5027325;28;20229;-74
2023/06/30 11:39:06;;;;;;;7.97;6.45;;;;;;;;;;4998356;28;20315;-74
2023/06/30 11:41:32;;;;;;;11.35;6.40;;;;;;;;;;5000821;28;20712;-73
2023/06/30 11:43:58;;;;;;;9.07;6.20;;;;;;;;;;5018713;28;20242;-73
2023/06/30 11:46:23;;;;;;;10.07;6.82;;;;;;;;;;5020237;28;20250;-74
2023/06/30 11:48:49;;;;;;;11.25;6.68;;;;;;;;;;5023773;28;20337;-74
2023/06/30 11:51:14;;;;;;;11.07;7.18;;;;;;;;;;5024924;28;20257;-74
2023/06/30 11:53:42;;;;;;;7.80;6.38;;;;;;;;;;5025460;28;20631;-74
2023/06/30 11:56:08;;;;;;;10.55;6.50;;;;;;;;;;5026242;28;20249;-73
2023/06/30 11:58:33;;;;;;;9.63;6.72;;;;;;;;;;5018063;28;20245;-75
2023/06/30 12:01:03;;;;;;;11.68;6.22;;;;;;;;;;5007469;28;20232;-74
2023/06/30 12:03:28;;;;;;;11.27;6.30;;;;;;;;;;5020534;28;20252;-74
2023/06/30 12:05:57;;;;;;;11.05;6.40;;;;;;;;;;5021382;28;20226;-73
2023/06/30 12:08:24;;;;;;;10.50;6.50;;;;;;;;;;5023245;28;20326;-74
2023/06/30 12:10:49;;;;;;;10.35;6.40;;;;;;;;;;5036018;28;20242;-73
2023/06/30 12:13:14;;;;;;;9.63;5.88;;;;;;;;;;4999360;28;20226;-74
2023/06/30 12:15:40;;;;;;;10.05;6.43;;;;;;;;;;5021701;28;20272;-73
2023/06/30 12:18:05;;;;;;;10.45;5.55;;;;;;;;;;5025224;28;20214;-73
2023/06/30 12:20:31;;;;;;;8.45;5.90;;;;;;;;;;5019920;28;20705;-75
2023/06/30 12:22:57;;;;;;;9.98;6.22;;;;;;;;;;5018621;28;20279;-74
2023/06/30 12:25:24;;;;;;;9.23;6.40;;;;;;;;;;5022998;28;20230;-74
2023/06/30 12:27:50;;;;;;;11.18;6.75;;;;;;;;;;5019606;28;20270;-74
2023/06/30 12:30:15;;;;;;;8.18;5.32;;;;;;;;;;5024499;28;20237;-74
2023/06/30 12:32:41;;;;;;;11.32;5.30;;;;;;;;;;5024649;28;20227;-74
2023/06/30 12:35:08;;;;;;;5.70;4.90;;;;;;;;;;5024911;28;20229;-73
2023/06/30 12:37:33;;;;;;;6.15;4.80;;;;;;;;;;5025717;28;20218;-74
2023/06/30 12:39:58;;;;;;;6.28;5.00;;;;;;;;;;5022893;28;20637;-75
2023/06/30 12:42:24;;;;;;;10.32;4.80;;;;;;;;;;5025722;28;20233;-74
2023/06/30 12:44:49;;;;;;;6.22;4.10;;;;;;;;;;5025364;28;20294;-75
2023/06/30 12:47:15;;;;;;;6.45;4.10;;;;;;;;;;5035267;28;20229;-75
2023/06/30 12:49:40;;;;;;;5.95;4.55;;;;;;;;;;5021836;28;20623;-72
2023/06/30 12:52:05;;;;;;;7.35;4.60;;;;;;;;;;5019440;28;20281;-73
2023/06/30 12:54:30;;;;;;;6.65;4.60;;;;;;;;;;5014855;28;20614;-75
2023/06/30 12:56:56;;;;;;;6.22;4.80;;;;;;;;;;5034820;28;20669;-74
2023/06/30 12:59:22;;;;;;;5.43;4.57;;;;;;;;;;4998779;28;20247;-74
2023/06/30 13:01:47;;;;;;;7.80;4.60;;;;;;;;;;5018721;28;20696;-74
2023/06/30 13:04:12;;;;;;;9.18;4.60;;;;;;;;;;5034424;28;20221;-75
2023/06/30 13:06:38;;;;;;;7.82;4.75;;;;;;;;;;5024433;28;20246;-75
2023/06/30 13:09:04;;;;;;;5.13;4.00;;;;;;;;;;5022623;28;20757;-73
2023/06/30 13:11:29;;;;;;;5.78;4.22;;;;;;;;;;5010014;28;20297;-73
2023/06/30 13:13:55;;;;;;;6.40;4.10;;;;;;;;;;5013776;28;20222;-74
2023/06/30 13:16:20;;;;;;;5.97;4.20;;;;;;;;;;5023240;28;20233;-73
2023/06/30 13:18:45;;;;;;;6.43;4.05;;;;;;;;;;5025100;28;20273;-74
2023/06/30 13:21:11;;;;;;;6.53;2.90;;;;;;;;;;5034724;28;20225;-73
2023/06/30 13:23:36;;;;;;;5.80;2.80;;;;;;;;;;5023151;28;20782;-74
2023/06/30 13:26:02;;;;;;;4.93;3.08;;;;;;;;;;5024295;28;20222;-73
2023/06/30 13:28:28;;;;;;;3.40;2.55;;;;;;;;;;5021120;28;20222;-74
2023/06/30 13:30:53;;;;;;;5.28;2.55;;;;;;;;;;5024459;28;20231;-78
2023/06/30 13:33:18;;;;;;;4.47;2.35;;;;;;;;;;5023036;28;20218;-77
2023/06/30 13:35:44;;;;;;;5.20;2.80;;;;;;;;;;5035841;28;20249;-77
2023/06/30 13:38:10;;;;;;;5.32;2.50;;;;;;;;;;5022712;28;20221;-80
2023/06/30 13:40:36;;;;;;;5.85;2.30;;;;;;;;;;5024350;28;20232;-79
2023/06/30 13:43:01;;;;;;;2.83;2.50;;;;;;;;;;5023719;28;20302;-80
2023/06/30 13:45:27;;;;;;;3.00;2.20;;;;;;;;;;5032903;28;20684;-75
2023/06/30 13:47:52;;;;;;;5.63;2.40;;;;;;;;;;5033542;28;20235;-74
2023/06/30 13:50:17;;;;;;;7.35;2.50;;;;;;;;;;5024574;28;20901;-74
2023/06/30 13:52:43;;;;;;;4.72;2.40;;;;;;;;;;5035348;28;20222;-74
2023/06/30 13:55:08;;;;;;;8.82;2.50;;;;;;;;;;5034599;28;20279;-73
2023/06/30 13:57:34;;;;;;;6.47;2.90;;;;;;;;;;5021584;28;20253;-74
2023/06/30 14:00:00;;;;;;;3.55;2.60;;;;;;;;;;5022516;28;20313;-74
2023/06/30 14:02:25;;;;;;;5.95;2.90;;;;;;;;;;5033080;28;20282;-74
2023/06/30 14:04:50;;;;;;;3.88;2.70;;;;;;;;;;5023605;28;20233;-74
2023/06/30 14:07:15;;;;;;;4.32;2.72;;;;;;;;;;5028502;28;20230;-73
2023/06/30 14:09:41;;;;;;;4.07;2.92;;;;;;;;;;5018168;28;20309;-73
2023/06/30 14:12:06;;;;;;;3.92;2.78;;;;;;;;;;5022372;28;20230;-74
2023/06/30 14:14:32;;;;;;;5.60;2.90;;;;;;;;;;5022861;28;20222;-75
2023/06/30 14:16:57;;;;;;;4.60;2.60;;;;;;;;;;5022302;28;20230;-74
2023/06/30 14:19:22;;;;;;;4.80;2.70;;;;;;;;;;5023326;28;20206;-75
2023/06/30 14:21:48;;;;;;;3.55;2.80;;;;;;;;;;5029219;28;20234;-75
2023/06/30 14:24:13;;;;;;;5.97;2.70;;;;;;;;;;5017932;28;20221;-73